sensor_id;sensor_type;location;lat;lon;timestamp;temperature;humidity
39045;DHT22;52192;52.002;5.956;2024-01-30T00:02:06;8.40;77.30
39045;DHT22;52192;52.002;5.956;2024-01-30T00:04:32;8.40;77.40
39045;DHT22;52192;52.002;5.956;2024-01-30T00:06:57;8.30;77.20
39045;DHT22;52192;52.002;5.956;2024-01-30T00:09:23;8.30;77.30
39045;DHT22;52192;52.002;5.956;2024-01-30T00:11:49;8.30;77.20
39045;DHT22;52192;52.002;5.956;2024-01-30T00:14:14;8.20;77.20
39045;DHT22;52192;52.002;5.956;2024-01-30T00:16:40;8.20;77.20
39045;DHT22;52192;52.002;5.956;2024-01-30T00:19:06;8.20;77.20
39045;DHT22;52192;52.002;5.956;2024-01-30T00:21:33;8.20;77.20
39045;DHT22;52192;52.002;5.956;2024-01-30T00:23:59;8.10;77.10
39045;DHT22;52192;52.002;5.956;2024-01-30T00:26:25;8.10;77.10
39045;DHT22;52192;52.002;5.956;2024-01-30T00:28:51;8.10;77.10
39045;DHT22;52192;52.002;5.956;2024-01-30T00:31:16;8.10;77.10
39045;DHT22;52192;52.002;5.956;2024-01-30T00:33:42;8.00;77.10
39045;DHT22;52192;52.002;5.956;2024-01-30T00:36:09;8.00;77.20
39045;DHT22;52192;52.002;5.956;2024-01-30T00:38:35;8.00;77.20
39045;DHT22;52192;52.002;5.956;2024-01-30T00:41:01;7.90;77.40
39045;DHT22;52192;52.002;5.956;2024-01-30T00:43:27;7.90;77.30
39045;DHT22;52192;52.002;5.956;2024-01-30T00:45:53;7.90;77.40
39045;DHT22;52192;52.002;5.956;2024-01-30T00:48:19;7.80;78.10
39045;DHT22;52192;52.002;5.956;2024-01-30T00:50:45;7.80;77.50
39045;DHT22;52192;52.002;5.956;2024-01-30T00:53:11;7.80;77.50
39045;DHT22;52192;52.002;5.956;2024-01-30T00:55:36;7.80;77.50
39045;DHT22;52192;52.002;5.956;2024-01-30T00:58:02;7.80;77.60
39045;DHT22;52192;52.002;5.956;2024-01-30T01:00:28;7.80;77.70
39045;DHT22;52192;52.002;5.956;2024-01-30T01:02:58;7.80;77.70
39045;DHT22;52192;52.002;5.956;2024-01-30T01:05:24;7.80;77.80
39045;DHT22;52192;52.002;5.956;2024-01-30T01:07:50;7.80;77.70
39045;DHT22;52192;52.002;5.956;2024-01-30T01:10:16;7.80;77.80
39045;DHT22;52192;52.002;5.956;2024-01-30T01:12:44;7.80;77.70
39045;DHT22;52192;52.002;5.956;2024-01-30T01:15:09;7.80;77.80
39045;DHT22;52192;52.002;5.956;2024-01-30T01:17:36;7.80;77.80
39045;DHT22;52192;52.002;5.956;2024-01-30T01:20:03;7.80;77.70
39045;DHT22;52192;52.002;5.956;2024-01-30T01:22:30;7.80;77.80
39045;DHT22;52192;52.002;5.956;2024-01-30T01:24:56;7.80;77.80
39045;DHT22;52192;52.002;5.956;2024-01-30T01:27:21;7.80;77.70
39045;DHT22;52192;52.002;5.956;2024-01-30T01:29:47;7.80;77.80
39045;DHT22;52192;52.002;5.956;2024-01-30T01:32:13;7.80;77.80
39045;DHT22;52192;52.002;5.956;2024-01-30T01:34:38;7.80;77.90
39045;DHT22;52192;52.002;5.956;2024-01-30T01:37:04;7.70;78.00
39045;DHT22;52192;52.002;5.956;2024-01-30T01:39:30;7.70;78.00
39045;DHT22;52192;52.002;5.956;2024-01-30T01:41:55;7.70;78.00
39045;DHT22;52192;52.002;5.956;2024-01-30T01:44:21;7.70;78.10
39045;DHT22;52192;52.002;5.956;2024-01-30T01:46:47;7.60;78.30
39045;DHT22;52192;52.002;5.956;2024-01-30T01:49:14;7.60;78.30
39045;DHT22;52192;52.002;5.956;2024-01-30T01:51:41;7.60;78.30
39045;DHT22;52192;52.002;5.956;2024-01-30T01:54:07;7.70;78.30
39045;DHT22;52192;52.002;5.956;2024-01-30T01:56:34;7.60;78.10
39045;DHT22;52192;52.002;5.956;2024-01-30T01:59:05;7.60;78.00
39045;DHT22;52192;52.002;5.956;2024-01-30T02:01:36;7.60;78.10
39045;DHT22;52192;52.002;5.956;2024-01-30T02:04:02;7.60;78.10
39045;DHT22;52192;52.002;5.956;2024-01-30T02:06:28;7.60;78.10
39045;DHT22;52192;52.002;5.956;2024-01-30T02:08:54;7.60;78.10
39045;DHT22;52192;52.002;5.956;2024-01-30T02:11:21;7.60;78.20
39045;DHT22;52192;52.002;5.956;2024-01-30T02:13:48;7.60;78.10
39045;DHT22;52192;52.002;5.956;2024-01-30T02:16:14;7.60;78.10
39045;DHT22;52192;52.002;5.956;2024-01-30T02:18:40;7.60;78.20
39045;DHT22;52192;52.002;5.956;2024-01-30T02:21:11;7.60;78.20
39045;DHT22;52192;52.002;5.956;2024-01-30T02:23:36;7.60;78.40
39045;DHT22;52192;52.002;5.956;2024-01-30T02:26:03;7.60;78.30
39045;DHT22;52192;52.002;5.956;2024-01-30T02:28:29;7.60;78.30
39045;DHT22;52192;52.002;5.956;2024-01-30T02:30:54;7.60;78.30
39045;DHT22;52192;52.002;5.956;2024-01-30T02:33:20;7.60;78.40
39045;DHT22;52192;52.002;5.956;2024-01-30T02:35:48;7.50;78.40
39045;DHT22;52192;52.002;5.956;2024-01-30T02:38:15;7.60;78.40
39045;DHT22;52192;52.002;5.956;2024-01-30T02:40:40;7.60;78.30
39045;DHT22;52192;52.002;5.956;2024-01-30T02:43:06;7.50;78.30
39045;DHT22;52192;52.002;5.956;2024-01-30T02:45:32;7.50;78.50
39045;DHT22;52192;52.002;5.956;2024-01-30T02:47:58;7.50;78.60
39045;DHT22;52192;52.002;5.956;2024-01-30T02:50:24;7.50;78.60
39045;DHT22;52192;52.002;5.956;2024-01-30T02:52:49;7.50;78.70
39045;DHT22;52192;52.002;5.956;2024-01-30T02:55:15;7.50;78.90
39045;DHT22;52192;52.002;5.956;2024-01-30T02:57:43;7.50;78.90
39045;DHT22;52192;52.002;5.956;2024-01-30T03:00:09;7.50;78.90
39045;DHT22;52192;52.002;5.956;2024-01-30T03:02:36;7.50;78.80
39045;DHT22;52192;52.002;5.956;2024-01-30T03:05:02;7.50;78.80
39045;DHT22;52192;52.002;5.956;2024-01-30T03:07:31;7.50;78.80
39045;DHT22;52192;52.002;5.956;2024-01-30T03:09:57;7.50;78.80
39045;DHT22;52192;52.002;5.956;2024-01-30T03:12:22;7.50;78.80
39045;DHT22;52192;52.002;5.956;2024-01-30T03:14:48;7.50;78.80
39045;DHT22;52192;52.002;5.956;2024-01-30T03:17:15;7.50;78.90
39045;DHT22;52192;52.002;5.956;2024-01-30T03:19:41;7.50;79.00
39045;DHT22;52192;52.002;5.956;2024-01-30T03:22:07;7.50;79.20
39045;DHT22;52192;52.002;5.956;2024-01-30T03:24:32;7.50;79.30
39045;DHT22;52192;52.002;5.956;2024-01-30T03:26:59;7.50;79.20
39045;DHT22;52192;52.002;5.956;2024-01-30T03:29:24;7.50;79.80
39045;DHT22;52192;52.002;5.956;2024-01-30T03:31:50;7.50;79.20
39045;DHT22;52192;52.002;5.956;2024-01-30T03:34:16;7.50;79.10
39045;DHT22;52192;52.002;5.956;2024-01-30T03:36:41;7.50;79.00
39045;DHT22;52192;52.002;5.956;2024-01-30T03:39:07;7.50;79.00
39045;DHT22;52192;52.002;5.956;2024-01-30T03:41:33;7.50;79.10
39045;DHT22;52192;52.002;5.956;2024-01-30T03:43:59;7.50;79.10
39045;DHT22;52192;52.002;5.956;2024-01-30T03:46:25;7.50;79.10
39045;DHT22;52192;52.002;5.956;2024-01-30T03:48:50;7.50;79.00
39045;DHT22;52192;52.002;5.956;2024-01-30T03:51:16;7.50;79.00
39045;DHT22;52192;52.002;5.956;2024-01-30T03:53:42;7.50;79.10
39045;DHT22;52192;52.002;5.956;2024-01-30T03:56:08;7.50;79.10
39045;DHT22;52192;52.002;5.956;2024-01-30T03:58:34;7.50;79.10
39045;DHT22;52192;52.002;5.956;2024-01-30T04:01:00;7.50;79.20
39045;DHT22;52192;52.002;5.956;2024-01-30T04:03:26;7.50;79.20
39045;DHT22;52192;52.002;5.956;2024-01-30T04:05:52;7.50;79.10
39045;DHT22;52192;52.002;5.956;2024-01-30T04:08:18;7.50;79.10
39045;DHT22;52192;52.002;5.956;2024-01-30T04:10:44;7.50;79.20
39045;DHT22;52192;52.002;5.956;2024-01-30T04:13:10;7.50;79.30
39045;DHT22;52192;52.002;5.956;2024-01-30T04:15:36;7.50;79.40
39045;DHT22;52192;52.002;5.956;2024-01-30T04:18:02;7.50;79.50
39045;DHT22;52192;52.002;5.956;2024-01-30T04:20:27;7.50;79.50
39045;DHT22;52192;52.002;5.956;2024-01-30T04:22:53;7.50;79.50
39045;DHT22;52192;52.002;5.956;2024-01-30T04:25:19;7.50;79.40
39045;DHT22;52192;52.002;5.956;2024-01-30T04:27:45;7.60;79.50
39045;DHT22;52192;52.002;5.956;2024-01-30T04:30:10;7.60;79.50
39045;DHT22;52192;52.002;5.956;2024-01-30T04:32:37;7.60;79.60
39045;DHT22;52192;52.002;5.956;2024-01-30T04:35:03;7.60;80.10
39045;DHT22;52192;52.002;5.956;2024-01-30T04:37:29;7.70;79.60
39045;DHT22;52192;52.002;5.956;2024-01-30T04:39:55;7.60;79.60
39045;DHT22;52192;52.002;5.956;2024-01-30T04:42:20;7.70;79.60
39045;DHT22;52192;52.002;5.956;2024-01-30T04:44:46;7.70;79.60
39045;DHT22;52192;52.002;5.956;2024-01-30T04:47:12;7.70;79.50
39045;DHT22;52192;52.002;5.956;2024-01-30T04:49:41;7.70;79.50
39045;DHT22;52192;52.002;5.956;2024-01-30T04:52:08;7.70;79.50
39045;DHT22;52192;52.002;5.956;2024-01-30T04:54:35;7.80;79.60
39045;DHT22;52192;52.002;5.956;2024-01-30T04:57:01;7.80;79.50
39045;DHT22;52192;52.002;5.956;2024-01-30T04:59:27;7.80;79.40
39045;DHT22;52192;52.002;5.956;2024-01-30T05:01:53;7.80;79.30
39045;DHT22;52192;52.002;5.956;2024-01-30T05:04:19;7.80;79.30
39045;DHT22;52192;52.002;5.956;2024-01-30T05:06:45;7.80;79.40
39045;DHT22;52192;52.002;5.956;2024-01-30T05:09:11;7.80;79.40
39045;DHT22;52192;52.002;5.956;2024-01-30T05:11:40;7.80;79.50
39045;DHT22;52192;52.002;5.956;2024-01-30T05:14:07;7.90;79.50
39045;DHT22;52192;52.002;5.956;2024-01-30T05:16:34;7.90;79.50
39045;DHT22;52192;52.002;5.956;2024-01-30T05:19:00;7.80;79.40
39045;DHT22;52192;52.002;5.956;2024-01-30T05:21:26;7.80;79.60
39045;DHT22;52192;52.002;5.956;2024-01-30T05:23:52;7.80;79.50
39045;DHT22;52192;52.002;5.956;2024-01-30T05:26:17;7.90;79.60
39045;DHT22;52192;52.002;5.956;2024-01-30T05:28:43;7.90;79.50
39045;DHT22;52192;52.002;5.956;2024-01-30T05:31:13;7.90;79.50
39045;DHT22;52192;52.002;5.956;2024-01-30T05:33:40;8.00;79.50
39045;DHT22;52192;52.002;5.956;2024-01-30T05:36:06;8.00;79.50
39045;DHT22;52192;52.002;5.956;2024-01-30T05:38:32;8.00;79.50
39045;DHT22;52192;52.002;5.956;2024-01-30T05:40:58;8.00;79.60
39045;DHT22;52192;52.002;5.956;2024-01-30T05:43:24;8.00;79.60
39045;DHT22;52192;52.002;5.956;2024-01-30T05:45:51;8.00;79.50
39045;DHT22;52192;52.002;5.956;2024-01-30T05:48:17;8.00;79.60
39045;DHT22;52192;52.002;5.956;2024-01-30T05:50:43;8.00;79.70
39045;DHT22;52192;52.002;5.956;2024-01-30T05:53:09;8.00;79.60
39045;DHT22;52192;52.002;5.956;2024-01-30T05:55:34;8.00;79.60
39045;DHT22;52192;52.002;5.956;2024-01-30T05:58:00;8.00;79.60
39045;DHT22;52192;52.002;5.956;2024-01-30T06:00:26;8.10;79.70
39045;DHT22;52192;52.002;5.956;2024-01-30T06:02:52;8.10;79.70
39045;DHT22;52192;52.002;5.956;2024-01-30T06:05:18;8.10;79.70
39045;DHT22;52192;52.002;5.956;2024-01-30T06:07:43;8.10;79.70
39045;DHT22;52192;52.002;5.956;2024-01-30T06:10:09;8.10;79.70
39045;DHT22;52192;52.002;5.956;2024-01-30T06:12:35;8.10;79.80
39045;DHT22;52192;52.002;5.956;2024-01-30T06:15:01;8.10;79.80
39045;DHT22;52192;52.002;5.956;2024-01-30T06:17:27;8.10;79.80
39045;DHT22;52192;52.002;5.956;2024-01-30T06:19:53;8.10;79.80
39045;DHT22;52192;52.002;5.956;2024-01-30T06:22:19;8.10;79.80
39045;DHT22;52192;52.002;5.956;2024-01-30T06:24:45;8.10;79.90
39045;DHT22;52192;52.002;5.956;2024-01-30T06:27:13;8.10;80.00
39045;DHT22;52192;52.002;5.956;2024-01-30T06:29:39;8.10;80.10
39045;DHT22;52192;52.002;5.956;2024-01-30T06:32:05;8.10;80.20
39045;DHT22;52192;52.002;5.956;2024-01-30T06:34:31;8.10;80.30
39045;DHT22;52192;52.002;5.956;2024-01-30T06:36:57;8.10;80.30
39045;DHT22;52192;52.002;5.956;2024-01-30T06:39:22;8.10;80.40
39045;DHT22;52192;52.002;5.956;2024-01-30T06:41:48;8.10;80.50
39045;DHT22;52192;52.002;5.956;2024-01-30T06:44:15;8.10;80.50
39045;DHT22;52192;52.002;5.956;2024-01-30T06:46:40;8.20;80.50
39045;DHT22;52192;52.002;5.956;2024-01-30T06:49:06;8.20;80.50
39045;DHT22;52192;52.002;5.956;2024-01-30T06:51:31;8.20;80.60
39045;DHT22;52192;52.002;5.956;2024-01-30T06:53:57;8.20;80.70
39045;DHT22;52192;52.002;5.956;2024-01-30T06:56:23;8.20;80.70
39045;DHT22;52192;52.002;5.956;2024-01-30T06:58:52;8.20;80.80
39045;DHT22;52192;52.002;5.956;2024-01-30T07:01:18;8.20;80.90
39045;DHT22;52192;52.002;5.956;2024-01-30T07:03:43;8.20;80.90
39045;DHT22;52192;52.002;5.956;2024-01-30T07:06:09;8.20;80.90
39045;DHT22;52192;52.002;5.956;2024-01-30T07:08:38;8.20;80.90
39045;DHT22;52192;52.002;5.956;2024-01-30T07:11:05;8.20;80.90
39045;DHT22;52192;52.002;5.956;2024-01-30T07:13:31;8.30;80.90
39045;DHT22;52192;52.002;5.956;2024-01-30T07:15:57;8.30;80.90
39045;DHT22;52192;52.002;5.956;2024-01-30T07:18:23;8.30;80.90
39045;DHT22;52192;52.002;5.956;2024-01-30T07:20:49;8.30;80.90
39045;DHT22;52192;52.002;5.956;2024-01-30T07:23:16;8.30;81.00
39045;DHT22;52192;52.002;5.956;2024-01-30T07:25:43;8.30;81.00
39045;DHT22;52192;52.002;5.956;2024-01-30T07:28:09;8.30;81.00
39045;DHT22;52192;52.002;5.956;2024-01-30T07:30:36;8.40;81.10
39045;DHT22;52192;52.002;5.956;2024-01-30T07:33:02;8.40;81.10
39045;DHT22;52192;52.002;5.956;2024-01-30T07:35:27;8.40;81.10
39045;DHT22;52192;52.002;5.956;2024-01-30T07:37:53;8.50;81.10
39045;DHT22;52192;52.002;5.956;2024-01-30T07:40:19;8.50;81.10
39045;DHT22;52192;52.002;5.956;2024-01-30T07:42:44;8.50;81.00
39045;DHT22;52192;52.002;5.956;2024-01-30T07:45:10;8.60;81.00
39045;DHT22;52192;52.002;5.956;2024-01-30T07:47:36;8.70;81.00
39045;DHT22;52192;52.002;5.956;2024-01-30T07:50:01;8.70;81.00
39045;DHT22;52192;52.002;5.956;2024-01-30T07:52:27;8.70;81.10
39045;DHT22;52192;52.002;5.956;2024-01-30T07:54:53;8.70;81.10
39045;DHT22;52192;52.002;5.956;2024-01-30T07:57:19;8.80;81.10
39045;DHT22;52192;52.002;5.956;2024-01-30T07:59:45;8.80;81.10
39045;DHT22;52192;52.002;5.956;2024-01-30T08:02:12;8.80;81.10
39045;DHT22;52192;52.002;5.956;2024-01-30T08:04:38;8.90;81.20
39045;DHT22;52192;52.002;5.956;2024-01-30T08:07:04;8.90;81.00
39045;DHT22;52192;52.002;5.956;2024-01-30T08:09:30;9.00;81.10
39045;DHT22;52192;52.002;5.956;2024-01-30T08:11:56;9.10;81.10
39045;DHT22;52192;52.002;5.956;2024-01-30T08:14:21;9.10;81.00
39045;DHT22;52192;52.002;5.956;2024-01-30T08:16:47;9.20;81.30
39045;DHT22;52192;52.002;5.956;2024-01-30T08:19:14;9.30;81.20
39045;DHT22;52192;52.002;5.956;2024-01-30T08:21:40;9.40;81.00
39045;DHT22;52192;52.002;5.956;2024-01-30T08:24:06;9.50;80.70
39045;DHT22;52192;52.002;5.956;2024-01-30T08:26:32;9.60;80.70
39045;DHT22;52192;52.002;5.956;2024-01-30T08:28:58;9.70;80.80
39045;DHT22;52192;52.002;5.956;2024-01-30T08:31:24;9.80;80.90
39045;DHT22;52192;52.002;5.956;2024-01-30T08:33:50;9.80;80.80
39045;DHT22;52192;52.002;5.956;2024-01-30T08:36:16;9.90;80.70
39045;DHT22;52192;52.002;5.956;2024-01-30T08:38:42;10.00;80.70
39045;DHT22;52192;52.002;5.956;2024-01-30T08:41:08;10.10;81.50
39045;DHT22;52192;52.002;5.956;2024-01-30T08:43:34;10.20;80.80
39045;DHT22;52192;52.002;5.956;2024-01-30T08:46:00;10.20;80.60
39045;DHT22;52192;52.002;5.956;2024-01-30T08:48:26;10.20;80.70
39045;DHT22;52192;52.002;5.956;2024-01-30T08:50:52;10.30;80.70
39045;DHT22;52192;52.002;5.956;2024-01-30T08:53:18;10.30;80.70
39045;DHT22;52192;52.002;5.956;2024-01-30T08:55:44;10.30;80.70
39045;DHT22;52192;52.002;5.956;2024-01-30T08:58:10;10.40;80.70
39045;DHT22;52192;52.002;5.956;2024-01-30T09:00:36;10.50;80.70
39045;DHT22;52192;52.002;5.956;2024-01-30T09:03:01;10.50;80.50
39045;DHT22;52192;52.002;5.956;2024-01-30T09:05:27;10.60;80.90
39045;DHT22;52192;52.002;5.956;2024-01-30T09:07:53;10.70;80.80
39045;DHT22;52192;52.002;5.956;2024-01-30T09:10:19;10.70;80.70
39045;DHT22;52192;52.002;5.956;2024-01-30T09:12:45;10.80;80.70
39045;DHT22;52192;52.002;5.956;2024-01-30T09:15:10;10.80;80.70
39045;DHT22;52192;52.002;5.956;2024-01-30T09:17:36;10.80;81.00
39045;DHT22;52192;52.002;5.956;2024-01-30T09:20:02;10.90;81.00
39045;DHT22;52192;52.002;5.956;2024-01-30T09:22:28;10.90;80.90
39045;DHT22;52192;52.002;5.956;2024-01-30T09:24:53;10.90;80.80
39045;DHT22;52192;52.002;5.956;2024-01-30T09:27:19;11.00;81.00
39045;DHT22;52192;52.002;5.956;2024-01-30T09:29:45;11.00;81.10
39045;DHT22;52192;52.002;5.956;2024-01-30T09:32:11;11.10;81.00
39045;DHT22;52192;52.002;5.956;2024-01-30T09:34:36;11.10;81.50
39045;DHT22;52192;52.002;5.956;2024-01-30T09:37:02;11.10;81.40
39045;DHT22;52192;52.002;5.956;2024-01-30T09:39:28;11.20;81.60
39045;DHT22;52192;52.002;5.956;2024-01-30T09:42:20;11.20;81.40
39045;DHT22;52192;52.002;5.956;2024-01-30T09:44:51;11.30;81.50
39045;DHT22;52192;52.002;5.956;2024-01-30T09:47:17;11.30;81.30
39045;DHT22;52192;52.002;5.956;2024-01-30T09:49:43;11.30;81.20
39045;DHT22;52192;52.002;5.956;2024-01-30T09:52:09;11.40;81.30
39045;DHT22;52192;52.002;5.956;2024-01-30T09:54:36;11.40;81.80
39045;DHT22;52192;52.002;5.956;2024-01-30T09:57:03;11.50;81.80
39045;DHT22;52192;52.002;5.956;2024-01-30T09:59:29;11.50;81.70
39045;DHT22;52192;52.002;5.956;2024-01-30T10:01:55;11.50;81.90
39045;DHT22;52192;52.002;5.956;2024-01-30T10:04:22;11.60;82.10
39045;DHT22;52192;52.002;5.956;2024-01-30T10:06:47;11.60;82.40
39045;DHT22;52192;52.002;5.956;2024-01-30T10:09:13;11.60;82.20
39045;DHT22;52192;52.002;5.956;2024-01-30T10:11:39;11.70;82.20
39045;DHT22;52192;52.002;5.956;2024-01-30T10:14:05;11.70;82.00
39045;DHT22;52192;52.002;5.956;2024-01-30T10:16:30;11.70;82.10
39045;DHT22;52192;52.002;5.956;2024-01-30T10:18:56;11.80;81.90
39045;DHT22;52192;52.002;5.956;2024-01-30T10:21:22;11.90;81.90
39045;DHT22;52192;52.002;5.956;2024-01-30T10:23:47;11.90;82.00
39045;DHT22;52192;52.002;5.956;2024-01-30T10:26:16;12.00;81.70
39045;DHT22;52192;52.002;5.956;2024-01-30T10:28:42;12.00;81.70
39045;DHT22;52192;52.002;5.956;2024-01-30T10:31:08;12.10;81.70
39045;DHT22;52192;52.002;5.956;2024-01-30T10:33:34;12.10;81.90
39045;DHT22;52192;52.002;5.956;2024-01-30T10:36:04;12.10;82.10
39045;DHT22;52192;52.002;5.956;2024-01-30T10:38:31;12.10;82.10
39045;DHT22;52192;52.002;5.956;2024-01-30T10:40:58;12.10;82.00
39045;DHT22;52192;52.002;5.956;2024-01-30T10:43:32;12.20;82.00
39045;DHT22;52192;52.002;5.956;2024-01-30T10:46:15;12.20;81.80
39045;DHT22;52192;52.002;5.956;2024-01-30T10:48:43;12.30;81.70
39045;DHT22;52192;52.002;5.956;2024-01-30T10:51:13;12.30;81.60
39045;DHT22;52192;52.002;5.956;2024-01-30T10:53:40;12.30;81.90
39045;DHT22;52192;52.002;5.956;2024-01-30T10:56:06;12.30;82.00
39045;DHT22;52192;52.002;5.956;2024-01-30T10:58:33;12.30;81.80
39045;DHT22;52192;52.002;5.956;2024-01-30T11:00:59;12.40;81.90
39045;DHT22;52192;52.002;5.956;2024-01-30T11:03:26;12.40;81.90
39045;DHT22;52192;52.002;5.956;2024-01-30T11:05:52;12.40;81.70
39045;DHT22;52192;52.002;5.956;2024-01-30T11:08:24;12.50;81.60
39045;DHT22;52192;52.002;5.956;2024-01-30T11:10:55;12.50;81.50
39045;DHT22;52192;52.002;5.956;2024-01-30T11:13:22;12.50;81.60
39045;DHT22;52192;52.002;5.956;2024-01-30T11:15:48;12.60;81.70
39045;DHT22;52192;52.002;5.956;2024-01-30T11:18:25;12.60;81.70
39045;DHT22;52192;52.002;5.956;2024-01-30T11:20:51;12.70;81.80
39045;DHT22;52192;52.002;5.956;2024-01-30T11:23:17;12.70;81.70
39045;DHT22;52192;52.002;5.956;2024-01-30T11:25:46;12.80;81.50
39045;DHT22;52192;52.002;5.956;2024-01-30T11:28:15;12.90;81.40
39045;DHT22;52192;52.002;5.956;2024-01-30T11:30:42;13.00;81.50
39045;DHT22;52192;52.002;5.956;2024-01-30T11:33:12;13.20;80.90
39045;DHT22;52192;52.002;5.956;2024-01-30T11:35:42;13.20;80.40
39045;DHT22;52192;52.002;5.956;2024-01-30T11:38:10;13.20;80.40
39045;DHT22;52192;52.002;5.956;2024-01-30T11:40:37;13.20;80.30
39045;DHT22;52192;52.002;5.956;2024-01-30T11:43:05;13.20;80.30
39045;DHT22;52192;52.002;5.956;2024-01-30T11:45:31;13.10;81.00
39045;DHT22;52192;52.002;5.956;2024-01-30T11:47:58;13.10;80.50
39045;DHT22;52192;52.002;5.956;2024-01-30T11:50:25;13.10;80.60
39045;DHT22;52192;52.002;5.956;2024-01-30T11:52:51;13.10;80.40
39045;DHT22;52192;52.002;5.956;2024-01-30T11:55:17;13.20;80.30
39045;DHT22;52192;52.002;5.956;2024-01-30T11:57:43;13.20;80.10
39045;DHT22;52192;52.002;5.956;2024-01-30T12:00:16;13.50;80.20
39045;DHT22;52192;52.002;5.956;2024-01-30T12:02:42;13.80;79.10
39045;DHT22;52192;52.002;5.956;2024-01-30T12:05:09;14.00;77.70
39045;DHT22;52192;52.002;5.956;2024-01-30T12:07:35;14.20;77.20
39045;DHT22;52192;52.002;5.956;2024-01-30T12:10:01;14.10;76.80
39045;DHT22;52192;52.002;5.956;2024-01-30T12:12:28;14.00;77.00
39045;DHT22;52192;52.002;5.956;2024-01-30T12:14:55;13.90;77.20
39045;DHT22;52192;52.002;5.956;2024-01-30T12:17:32;13.80;77.00
39045;DHT22;52192;52.002;5.956;2024-01-30T12:20:14;13.70;77.30
39045;DHT22;52192;52.002;5.956;2024-01-30T12:22:44;13.70;77.40
39045;DHT22;52192;52.002;5.956;2024-01-30T12:25:11;13.60;77.50
39045;DHT22;52192;52.002;5.956;2024-01-30T12:27:37;13.60;77.60
39045;DHT22;52192;52.002;5.956;2024-01-30T12:30:07;13.80;78.00
39045;DHT22;52192;52.002;5.956;2024-01-30T12:32:37;14.10;76.30
39045;DHT22;52192;52.002;5.956;2024-01-30T12:35:03;14.50;75.90
39045;DHT22;52192;52.002;5.956;2024-01-30T12:37:30;15.70;74.60
39045;DHT22;52192;52.002;5.956;2024-01-30T12:39:56;16.70;71.20
39045;DHT22;52192;52.002;5.956;2024-01-30T12:42:22;17.50;67.40
39045;DHT22;52192;52.002;5.956;2024-01-30T12:44:48;18.50;66.00
39045;DHT22;52192;52.002;5.956;2024-01-30T12:47:15;19.50;61.60
39045;DHT22;52192;52.002;5.956;2024-01-30T12:49:44;18.80;60.20
39045;DHT22;52192;52.002;5.956;2024-01-30T12:52:15;17.70;62.60
39045;DHT22;52192;52.002;5.956;2024-01-30T12:54:41;16.90;64.60
39045;DHT22;52192;52.002;5.956;2024-01-30T12:57:07;16.70;65.60
39045;DHT22;52192;52.002;5.956;2024-01-30T12:59:33;16.80;65.20
39045;DHT22;52192;52.002;5.956;2024-01-30T13:02:00;17.30;64.00
39045;DHT22;52192;52.002;5.956;2024-01-30T13:04:27;17.60;61.30
39045;DHT22;52192;52.002;5.956;2024-01-30T13:06:53;17.00;62.20
39045;DHT22;52192;52.002;5.956;2024-01-30T13:09:19;16.30;63.40
39045;DHT22;52192;52.002;5.956;2024-01-30T13:11:45;15.90;65.00
39045;DHT22;52192;52.002;5.956;2024-01-30T13:14:10;15.70;64.90
39045;DHT22;52192;52.002;5.956;2024-01-30T13:16:36;15.20;65.90
39045;DHT22;52192;52.002;5.956;2024-01-30T13:19:02;14.70;67.30
39045;DHT22;52192;52.002;5.956;2024-01-30T13:21:28;14.40;68.40
39045;DHT22;52192;52.002;5.956;2024-01-30T13:23:54;14.50;69.00
39045;DHT22;52192;52.002;5.956;2024-01-30T13:26:20;14.70;68.70
39045;DHT22;52192;52.002;5.956;2024-01-30T13:28:46;14.70;68.30
39045;DHT22;52192;52.002;5.956;2024-01-30T13:31:14;14.40;68.10
39045;DHT22;52192;52.002;5.956;2024-01-30T13:33:40;14.20;68.60
39045;DHT22;52192;52.002;5.956;2024-01-30T13:36:07;14.00;68.90
39045;DHT22;52192;52.002;5.956;2024-01-30T13:38:33;13.90;69.10
39045;DHT22;52192;52.002;5.956;2024-01-30T13:41:00;13.70;69.20
39045;DHT22;52192;52.002;5.956;2024-01-30T13:43:26;13.60;68.80
39045;DHT22;52192;52.002;5.956;2024-01-30T13:45:52;13.50;68.90
39045;DHT22;52192;52.002;5.956;2024-01-30T13:48:18;13.30;68.70
39045;DHT22;52192;52.002;5.956;2024-01-30T13:50:43;13.10;68.80
39045;DHT22;52192;52.002;5.956;2024-01-30T13:53:10;13.00;69.30
39045;DHT22;52192;52.002;5.956;2024-01-30T13:55:35;12.80;69.60
39045;DHT22;52192;52.002;5.956;2024-01-30T13:58:01;12.80;70.50
39045;DHT22;52192;52.002;5.956;2024-01-30T14:00:27;12.70;71.20
39045;DHT22;52192;52.002;5.956;2024-01-30T14:02:53;12.60;72.10
39045;DHT22;52192;52.002;5.956;2024-01-30T14:05:23;12.50;72.40
39045;DHT22;52192;52.002;5.956;2024-01-30T14:07:49;12.40;72.80
39045;DHT22;52192;52.002;5.956;2024-01-30T14:10:15;12.30;73.30
39045;DHT22;52192;52.002;5.956;2024-01-30T14:12:42;12.20;73.70
39045;DHT22;52192;52.002;5.956;2024-01-30T14:15:09;12.10;74.40
39045;DHT22;52192;52.002;5.956;2024-01-30T14:17:35;12.00;74.70
39045;DHT22;52192;52.002;5.956;2024-01-30T14:20:02;12.00;74.90
39045;DHT22;52192;52.002;5.956;2024-01-30T14:22:29;12.00;75.20
39045;DHT22;52192;52.002;5.956;2024-01-30T14:24:55;11.90;75.30
39045;DHT22;52192;52.002;5.956;2024-01-30T14:27:22;11.90;75.30
39045;DHT22;52192;52.002;5.956;2024-01-30T14:29:47;11.90;75.30
39045;DHT22;52192;52.002;5.956;2024-01-30T14:32:13;11.90;75.20
39045;DHT22;52192;52.002;5.956;2024-01-30T14:34:39;12.00;75.20
39045;DHT22;52192;52.002;5.956;2024-01-30T14:37:05;12.00;75.20
39045;DHT22;52192;52.002;5.956;2024-01-30T14:39:30;12.00;75.30
39045;DHT22;52192;52.002;5.956;2024-01-30T14:41:57;11.90;75.30
39045;DHT22;52192;52.002;5.956;2024-01-30T14:44:22;12.00;75.40
39045;DHT22;52192;52.002;5.956;2024-01-30T14:46:48;12.00;75.50
39045;DHT22;52192;52.002;5.956;2024-01-30T14:49:14;11.90;75.70
39045;DHT22;52192;52.002;5.956;2024-01-30T14:51:41;11.90;75.60
39045;DHT22;52192;52.002;5.956;2024-01-30T14:54:07;12.00;75.50
39045;DHT22;52192;52.002;5.956;2024-01-30T14:56:33;11.90;75.40
39045;DHT22;52192;52.002;5.956;2024-01-30T14:58:58;11.90;75.40
39045;DHT22;52192;52.002;5.956;2024-01-30T15:01:24;11.90;75.60
39045;DHT22;52192;52.002;5.956;2024-01-30T15:03:50;11.90;75.70
39045;DHT22;52192;52.002;5.956;2024-01-30T15:06:21;11.80;75.90
39045;DHT22;52192;52.002;5.956;2024-01-30T15:08:50;11.70;76.10
39045;DHT22;52192;52.002;5.956;2024-01-30T15:11:15;11.60;76.60
39045;DHT22;52192;52.002;5.956;2024-01-30T15:13:41;11.50;77.20
39045;DHT22;52192;52.002;5.956;2024-01-30T15:16:07;11.50;77.40
39045;DHT22;52192;52.002;5.956;2024-01-30T15:18:33;11.50;77.60
39045;DHT22;52192;52.002;5.956;2024-01-30T15:20:59;11.40;77.70
39045;DHT22;52192;52.002;5.956;2024-01-30T15:23:24;11.50;77.60
39045;DHT22;52192;52.002;5.956;2024-01-30T15:25:50;11.50;77.70
39045;DHT22;52192;52.002;5.956;2024-01-30T15:28:16;11.50;77.80
39045;DHT22;52192;52.002;5.956;2024-01-30T15:30:42;11.40;78.00
39045;DHT22;52192;52.002;5.956;2024-01-30T15:33:12;11.40;78.20
39045;DHT22;52192;52.002;5.956;2024-01-30T15:35:37;11.30;78.30